createdAt,value
2022-10-31T00:02:17.632Z,6.1
2022-10-31T00:07:18.682Z,5.9
2022-10-31T00:09:49.274Z,5.8
2022-10-31T00:12:29.875Z,5.8
2022-10-31T00:15:00.454Z,5.7
2022-10-31T00:17:31.063Z,5.6
2022-10-31T00:20:01.659Z,5.6
2022-10-31T00:22:32.240Z,5.5
2022-10-31T00:25:12.844Z,5.5
2022-10-31T00:27:43.418Z,5.5
2022-10-31T00:30:14.386Z,5.4
2022-10-31T00:32:44.985Z,5.4
2022-10-31T00:35:15.593Z,5.4
2022-10-31T00:37:46.185Z,5.3
2022-10-31T00:40:26.798Z,5.3
2022-10-31T00:42:57.638Z,5.3
2022-10-31T00:47:59.069Z,5.3
2022-10-31T00:50:29.785Z,5.3
2022-10-31T00:53:00.379Z,5.3
2022-10-31T00:55:41.023Z,5.4
2022-10-31T00:58:11.623Z,5.3
2022-10-31T01:00:42.703Z,5.2
2022-10-31T01:03:14.708Z,5.2
2022-10-31T01:05:45.301Z,5.2
2022-10-31T01:08:15.896Z,5.2
2022-10-31T01:10:56.510Z,5.2
2022-10-31T01:13:27.077Z,5.2
2022-10-31T01:15:57.674Z,5.2
2022-10-31T01:18:28.266Z,5.2
2022-10-31T01:20:58.850Z,5.2
2022-10-31T01:23:29.404Z,5.2
2022-10-31T01:28:40.147Z,5.1
2022-10-31T01:31:10.743Z,4.9
2022-10-31T01:33:41.325Z,4.7
2022-10-31T01:36:11.920Z,4.5
2022-10-31T01:38:52.512Z,4.5
2022-10-31T01:41:23.097Z,4.5
2022-10-31T01:43:53.683Z,4.6
2022-10-31T01:46:24.208Z,4.6
2022-10-31T01:49:04.812Z,4.6
2022-10-31T01:51:35.440Z,4.6
2022-10-31T01:54:16.047Z,4.7
2022-10-31T01:56:46.658Z,4.7
2022-10-31T01:59:17.349Z,4.7
2022-10-31T02:01:48.028Z,4.7
2022-10-31T02:04:19.201Z,4.7
2022-10-31T02:09:29.918Z,4.8
2022-10-31T02:12:00.525Z,4.8
2022-10-31T02:14:31.104Z,4.8
2022-10-31T02:17:01.690Z,4.8
2022-10-31T02:19:32.282Z,4.8
2022-10-31T02:22:02.854Z,4.9
2022-10-31T02:24:43.442Z,4.8
2022-10-31T02:27:14.058Z,4.7
2022-10-31T02:29:44.665Z,4.7
2022-10-31T02:32:15.323Z,4.7
2022-10-31T02:34:45.899Z,4.6
2022-10-31T02:37:26.458Z,4.3
2022-10-31T02:39:57.074Z,3.9
2022-10-31T02:42:27.695Z,4.1
2022-10-31T02:44:58.281Z,4.3
2022-10-31T02:49:59.042Z,4.6
2022-10-31T02:52:39.665Z,4.8
2022-10-31T02:55:10.287Z,4.9
2022-10-31T02:57:40.889Z,4.9
2022-10-31T03:00:12.040Z,4.8
2022-10-31T03:02:42.724Z,4.7
2022-10-31T03:05:13.954Z,4.6
2022-10-31T03:07:54.547Z,4.5
2022-10-31T03:12:55.277Z,4.5
2022-10-31T03:15:26.431Z,4.5
2022-10-31T03:17:57.282Z,4.5
2022-10-31T03:20:28.197Z,4.4
2022-10-31T03:23:08.780Z,4.4
2022-10-31T03:25:39.299Z,4.3
2022-10-31T03:30:40.040Z,4.3
2022-10-31T03:33:13.804Z,4.5
2022-10-31T03:35:54.401Z,4.6
2022-10-31T03:38:24.988Z,4.5
2022-10-31T03:40:55.603Z,4.6
2022-10-31T03:43:26.208Z,4.5
2022-10-31T03:45:56.802Z,4.5
2022-10-31T03:48:27.386Z,4.4
2022-10-31T03:51:07.969Z,4.4
2022-10-31T03:53:38.568Z,4.5
2022-10-31T03:58:39.299Z,4.5
2022-10-31T04:01:09.936Z,4.5
2022-10-31T04:03:40.951Z,4.4
2022-10-31T04:06:21.576Z,4.3
2022-10-31T04:11:22.333Z,4.3
2022-10-31T04:13:52.918Z,4.3
2022-10-31T04:16:23.512Z,4.3
2022-10-31T04:18:54.110Z,4.2
2022-10-31T04:21:34.722Z,4.1
2022-10-31T04:24:05.289Z,4.1
2022-10-31T04:26:35.920Z,3.9
2022-10-31T04:29:06.485Z,3.9
2022-10-31T04:31:37.085Z,3.8
2022-10-31T04:36:47.840Z,3.7
2022-10-31T04:39:21.352Z,3.7
2022-10-31T04:41:54.858Z,3.9
2022-10-31T04:44:25.433Z,4.0
2022-10-31T04:46:56.013Z,4.1
2022-10-31T04:52:06.791Z,4.2
2022-10-31T04:54:37.398Z,4.2
2022-10-31T04:57:08.018Z,4.1
2022-10-31T04:59:38.582Z,4.1
2022-10-31T05:02:09.234Z,4.0
2022-10-31T05:04:50.070Z,4.0
2022-10-31T05:07:20.669Z,3.9
2022-10-31T05:09:51.271Z,3.9
2022-10-31T05:12:21.878Z,3.8
2022-10-31T05:14:52.469Z,3.7
2022-10-31T05:17:23.064Z,3.5
2022-10-31T05:20:03.667Z,3.5
2022-10-31T05:22:34.243Z,3.5
2022-10-31T05:25:04.827Z,3.5
2022-10-31T05:27:35.416Z,3.5
2022-10-31T05:32:36.216Z,3.5
2022-10-31T05:35:17.099Z,3.4
2022-10-31T05:37:47.666Z,3.5
2022-10-31T05:40:18.257Z,3.6
2022-10-31T05:42:48.856Z,3.5
2022-10-31T05:45:20.173Z,3.6
2022-10-31T05:48:01.000Z,3.8
2022-10-31T05:50:31.858Z,3.9
2022-10-31T05:53:02.454Z,3.9
2022-10-31T05:55:33.070Z,3.9
2022-10-31T05:58:04.007Z,3.9
2022-10-31T06:00:34.781Z,3.9
2022-10-31T06:03:15.351Z,3.7
2022-10-31T06:05:49.138Z,3.8
2022-10-31T06:08:22.895Z,3.7
2022-10-31T06:13:23.595Z,3.3
2022-10-31T06:15:54.188Z,3.2
2022-10-31T06:18:34.792Z,3.2
2022-10-31T06:21:05.365Z,3.3
2022-10-31T06:23:29.599Z,3.4
2022-10-31T06:26:00.196Z,3.3
2022-10-31T06:28:30.776Z,3.2
2022-10-31T06:31:01.374Z,3.2
2022-10-31T06:33:41.993Z,3.3
2022-10-31T06:36:12.628Z,3.5
2022-10-31T06:38:43.297Z,3.5
2022-10-31T06:41:13.902Z,3.5
2022-10-31T06:43:44.496Z,3.6
2022-10-31T06:46:29.171Z,3.7
2022-10-31T06:48:59.757Z,3.8
2022-10-31T06:54:00.520Z,4.1
2022-10-31T06:56:31.127Z,4.2
2022-10-31T06:59:01.716Z,4.3
2022-10-31T07:01:42.481Z,4.5
2022-10-31T07:04:13.549Z,4.6
2022-10-31T07:06:47.026Z,4.7
2022-10-31T07:09:18.837Z,4.8
2022-10-31T07:11:49.418Z,4.9
2022-10-31T07:14:20.022Z,5.2
2022-10-31T07:17:00.629Z,5.3
2022-10-31T07:19:32.588Z,5.5
2022-10-31T07:22:03.169Z,5.6
2022-10-31T07:24:33.772Z,5.7
2022-10-31T07:27:04.365Z,5.9
2022-10-31T07:29:34.968Z,6.0
2022-10-31T07:34:46.639Z,6.3
2022-10-31T07:37:18.244Z,6.4
2022-10-31T07:39:48.829Z,6.5
2022-10-31T07:42:19.418Z,6.6
2022-10-31T07:45:00.030Z,6.7
2022-10-31T07:50:00.779Z,6.9
2022-10-31T07:52:31.365Z,7.0
2022-10-31T07:55:01.977Z,7.0
2022-10-31T07:57:34.611Z,7.2
2022-10-31T08:00:15.483Z,7.2
2022-10-31T08:02:46.300Z,7.2
2022-10-31T08:05:17.326Z,7.5
2022-10-31T08:07:47.958Z,7.6
2022-10-31T08:10:18.914Z,7.7
2022-10-31T08:15:29.657Z,7.8
2022-10-31T08:18:00.647Z,7.9
2022-10-31T08:20:31.382Z,8.0
2022-10-31T08:23:01.960Z,7.7
2022-10-31T08:25:33.927Z,7.8
2022-10-31T08:27:58.207Z,7.8
2022-10-31T08:30:38.965Z,7.9
2022-10-31T08:33:09.566Z,8.0
2022-10-31T08:35:40.166Z,8.1
2022-10-31T08:38:10.744Z,8.3
2022-10-31T08:40:41.369Z,8.4
2022-10-31T08:43:21.989Z,8.5
2022-10-31T08:45:52.661Z,8.4
2022-10-31T08:48:23.251Z,8.6
2022-10-31T08:50:53.818Z,8.6
2022-10-31T08:55:54.575Z,8.8
2022-10-31T08:58:39.188Z,8.9
2022-10-31T09:01:10.707Z,8.9
2022-10-31T09:03:41.870Z,9.0
2022-10-31T09:06:12.510Z,9.0
2022-10-31T09:08:43.285Z,9.2
2022-10-31T09:11:13.880Z,9.1
2022-10-31T09:13:54.477Z,9.0
2022-10-31T09:16:25.089Z,9.0
2022-10-31T09:18:55.682Z,9.0
2022-10-31T09:21:31.682Z,8.9
2022-10-31T09:24:02.258Z,8.9
2022-10-31T09:26:32.851Z,9.0
2022-10-31T09:29:13.464Z,9.2
2022-10-31T09:31:45.010Z,9.4
2022-10-31T09:36:45.942Z,9.4
2022-10-31T09:39:16.529Z,9.4
2022-10-31T09:41:47.145Z,9.4
2022-10-31T09:44:28.019Z,9.5
2022-10-31T09:46:58.625Z,9.5
2022-10-31T09:49:29.222Z,9.6
2022-10-31T09:52:00.063Z,9.6
2022-10-31T09:54:30.701Z,9.7
2022-10-31T09:57:11.312Z,9.8
2022-10-31T09:59:41.894Z,10.0
2022-10-31T10:02:12.477Z,10.1
2022-10-31T10:04:43.188Z,10.3
2022-10-31T10:07:13.811Z,10.5
2022-10-31T10:09:44.408Z,10.7
2022-10-31T10:12:25.058Z,10.8
2022-10-31T10:17:25.781Z,11.2
2022-10-31T10:19:56.342Z,11.4
2022-10-31T10:22:21.096Z,11.4
2022-10-31T10:24:51.674Z,11.7
2022-10-31T10:27:32.304Z,11.6
2022-10-31T10:30:02.983Z,12.0
2022-10-31T10:32:33.568Z,12.0
2022-10-31T10:35:08.377Z,12.2
2022-10-31T10:37:38.948Z,12.5
2022-10-31T10:40:10.233Z,12.5
2022-10-31T10:42:50.941Z,12.7
2022-10-31T10:45:21.564Z,12.8
2022-10-31T10:47:52.161Z,12.9
2022-10-31T10:50:23.300Z,13.1
2022-10-31T10:52:53.883Z,13.2
2022-10-31T10:58:04.973Z,13.2
2022-10-31T11:00:35.658Z,13.4
2022-10-31T11:03:06.770Z,13.7
2022-10-31T11:05:37.641Z,13.7
2022-10-31T11:08:08.246Z,13.8
2022-10-31T11:10:48.865Z,13.8
2022-10-31T11:13:19.581Z,14.0
2022-10-31T11:15:50.170Z,14.0
2022-10-31T11:18:20.842Z,14.2
2022-10-31T11:20:51.485Z,14.0
2022-10-31T11:23:22.336Z,14.1
2022-10-31T11:26:02.933Z,14.2
2022-10-31T11:28:33.523Z,14.2
2022-10-31T11:31:04.155Z,14.2
2022-10-31T11:33:34.755Z,14.3
2022-10-31T11:38:35.509Z,14.4
2022-10-31T11:41:16.120Z,14.4
2022-10-31T11:43:46.721Z,14.4
2022-10-31T11:46:17.335Z,14.5
2022-10-31T11:48:47.916Z,14.5
2022-10-31T11:51:18.521Z,14.4
2022-10-31T11:53:49.100Z,14.5
2022-10-31T11:56:33.344Z,14.5
2022-10-31T11:59:03.946Z,14.4
2022-10-31T12:01:34.614Z,14.5
2022-10-31T12:04:06.156Z,14.4
2022-10-31T12:06:36.782Z,14.4
2022-10-31T12:09:07.398Z,14.4
2022-10-31T12:11:48.015Z,14.4
2022-10-31T12:14:18.596Z,14.3
2022-10-31T12:19:19.330Z,13.6
2022-10-31T12:21:49.908Z,13.5
2022-10-31T12:24:30.515Z,13.4
2022-10-31T12:27:01.109Z,13.4
2022-10-31T12:29:31.705Z,13.3
2022-10-31T12:32:02.295Z,13.2
2022-10-31T12:34:32.894Z,13.1
2022-10-31T12:37:09.271Z,13.2
2022-10-31T12:39:49.866Z,13.1
2022-10-31T12:42:20.475Z,13.1
2022-10-31T12:44:51.088Z,13.2
2022-10-31T12:47:21.677Z,13.2
2022-10-31T12:49:52.404Z,13.4
2022-10-31T12:52:23.007Z,13.5
2022-10-31T12:55:03.608Z,13.6
2022-10-31T13:00:04.374Z,13.6
2022-10-31T13:02:29.713Z,13.6
2022-10-31T13:05:00.298Z,13.5
2022-10-31T13:10:21.080Z,13.4
2022-10-31T13:12:51.683Z,13.5
2022-10-31T13:15:12.922Z,13.6
2022-10-31T13:17:53.588Z,13.6
2022-10-31T13:20:24.208Z,13.8
2022-10-31T13:23:13.468Z,13.8
2022-10-31T13:25:30.276Z,13.9
2022-10-31T13:28:00.860Z,14.1
2022-10-31T13:30:31.488Z,14.2
2022-10-31T13:33:02.905Z,14.3
2022-10-31T13:35:33.768Z,14.6
2022-10-31T13:40:44.586Z,15.0
2022-10-31T13:43:15.177Z,15.2
2022-10-31T13:45:45.785Z,15.5
2022-10-31T13:48:16.364Z,15.9
2022-10-31T13:50:46.962Z,16.0
2022-10-31T13:53:27.554Z,16.4
2022-10-31T13:55:58.161Z,16.2
2022-10-31T13:58:28.753Z,16.3
2022-10-31T14:00:59.420Z,16.0
2022-10-31T14:03:49.690Z,15.7
2022-10-31T14:06:06.325Z,15.4
2022-10-31T14:08:46.942Z,15.2
2022-10-31T14:11:17.552Z,15.0
2022-10-31T14:13:43.175Z,14.9
2022-10-31T14:16:13.769Z,14.8
2022-10-31T14:21:24.527Z,14.5
2022-10-31T14:23:55.237Z,14.4
2022-10-31T14:26:26.006Z,14.4
2022-10-31T14:28:56.568Z,14.3
2022-10-31T14:31:27.171Z,14.2
2022-10-31T14:33:57.775Z,14.0
2022-10-31T14:36:38.370Z,13.9
2022-10-31T14:39:08.938Z,13.9
2022-10-31T14:41:49.545Z,13.7
2022-10-31T14:44:20.171Z,13.7
2022-10-31T14:46:50.770Z,13.6
2022-10-31T14:49:21.329Z,13.6
2022-10-31T14:52:01.936Z,13.4
2022-10-31T14:54:32.520Z,13.3
2022-10-31T14:57:03.111Z,13.2
2022-10-31T15:02:03.937Z,13.2
2022-10-31T15:04:34.890Z,13.1
2022-10-31T15:07:18.130Z,13.0
2022-10-31T15:09:46.921Z,12.9
2022-10-31T15:12:17.651Z,12.8
2022-10-31T15:14:48.223Z,12.8
2022-10-31T15:17:18.814Z,12.7
2022-10-31T15:19:49.446Z,12.7
2022-10-31T15:22:30.059Z,12.6
2022-10-31T15:25:00.660Z,12.6
2022-10-31T15:27:31.261Z,12.5
2022-10-31T15:30:01.874Z,12.4
2022-10-31T15:32:32.489Z,12.4
2022-10-31T15:35:05.748Z,12.4
2022-10-31T15:37:46.352Z,12.3
2022-10-31T15:45:17.244Z,12.1
2022-10-31T15:47:47.839Z,12.1
2022-10-31T15:50:28.717Z,12.1
2022-10-31T15:52:59.618Z,12.0
2022-10-31T15:55:30.393Z,12.0
2022-10-31T15:58:00.988Z,12.0
2022-10-31T16:00:31.591Z,11.9
2022-10-31T16:03:02.613Z,11.8
2022-10-31T16:05:43.325Z,11.6
2022-10-31T16:08:13.930Z,11.7
2022-10-31T16:10:44.565Z,11.6
2022-10-31T16:13:15.148Z,11.6
2022-10-31T16:15:45.770Z,11.6
2022-10-31T16:18:15.334Z,11.6
2022-10-31T16:23:26.087Z,11.3
2022-10-31T16:25:56.663Z,11.2
2022-10-31T16:28:28.922Z,11.1
2022-10-31T16:30:55.068Z,11.0
2022-10-31T16:33:25.676Z,10.9
2022-10-31T16:36:22.658Z,10.8
2022-10-31T16:38:40.702Z,10.8
2022-10-31T16:41:11.301Z,10.7
2022-10-31T16:43:41.905Z,10.6
2022-10-31T16:46:13.093Z,10.5
2022-10-31T16:48:43.665Z,10.6
2022-10-31T16:51:24.247Z,10.6
2022-10-31T16:53:54.836Z,10.5
2022-10-31T16:56:25.442Z,10.4
2022-10-31T16:58:56.039Z,10.4
2022-10-31T17:04:07.069Z,10.0
2022-10-31T17:06:37.718Z,9.9
2022-10-31T17:09:08.322Z,9.7
2022-10-31T17:11:38.904Z,9.6
2022-10-31T17:14:10.301Z,9.7
2022-10-31T17:16:40.938Z,9.6
2022-10-31T17:19:21.543Z,9.5
2022-10-31T17:21:52.151Z,9.4
2022-10-31T17:24:22.741Z,9.3
2022-10-31T17:26:53.366Z,9.1
2022-10-31T17:29:23.951Z,8.9
2022-10-31T17:31:54.553Z,8.8
2022-10-31T17:34:35.164Z,8.8
2022-10-31T17:37:05.770Z,8.7
2022-10-31T17:39:36.347Z,8.6
2022-10-31T17:44:37.117Z,8.5
2022-10-31T17:47:07.723Z,8.5
2022-10-31T17:49:48.310Z,8.5
2022-10-31T17:52:18.890Z,8.5
2022-10-31T17:54:49.517Z,8.4
2022-10-31T17:57:20.146Z,8.3
2022-10-31T17:59:50.739Z,8.2
2022-10-31T18:02:31.423Z,8.0
2022-10-31T18:05:02.195Z,8.0
2022-10-31T18:07:32.797Z,8.0
2022-10-31T18:10:03.414Z,8.0
2022-10-31T18:12:44.013Z,7.8
2022-10-31T18:15:05.060Z,7.7
2022-10-31T18:17:45.646Z,7.7
2022-10-31T18:20:26.277Z,7.6
2022-10-31T18:25:27.017Z,7.4
2022-10-31T18:27:57.647Z,7.4
2022-10-31T18:30:28.338Z,7.3
2022-10-31T18:33:08.993Z,7.2
2022-10-31T18:35:39.579Z,7.2
2022-10-31T18:38:10.308Z,7.0
2022-10-31T18:40:41.085Z,6.9
2022-10-31T18:43:11.667Z,7.2
2022-10-31T18:45:46.782Z,7.3
2022-10-31T18:48:18.804Z,7.5
2022-10-31T18:50:49.415Z,7.5
2022-10-31T18:53:20.078Z,7.4
2022-10-31T18:55:50.687Z,7.0
2022-10-31T18:58:21.283Z,7.1
2022-10-31T19:01:01.929Z,8.0
2022-10-31T19:06:03.066Z,8.4
2022-10-31T19:08:33.669Z,8.8
2022-10-31T19:11:04.267Z,8.8
2022-10-31T19:13:34.832Z,8.9
2022-10-31T19:16:15.439Z,8.9
2022-10-31T19:18:46.036Z,8.8
2022-10-31T19:21:16.645Z,8.8
2022-10-31T19:23:47.240Z,8.7
2022-10-31T19:26:17.828Z,8.6
2022-10-31T19:28:48.417Z,8.5
2022-10-31T19:31:29.012Z,8.1
2022-10-31T19:33:59.625Z,7.8
2022-10-31T19:36:30.231Z,7.7
2022-10-31T19:39:00.795Z,7.7
2022-10-31T19:41:31.391Z,7.5
2022-10-31T19:46:53.631Z,6.2
2022-10-31T19:49:14.535Z,6.0
2022-10-31T19:51:45.131Z,5.9
2022-10-31T19:54:15.761Z,6.0
2022-10-31T19:56:46.371Z,5.9
2022-10-31T19:59:26.982Z,5.9
2022-10-31T20:02:00.120Z,5.9
2022-10-31T20:04:30.781Z,5.9
2022-10-31T20:07:01.390Z,5.9
2022-10-31T20:09:31.971Z,5.8
2022-10-31T20:12:02.654Z,5.8
2022-10-31T20:14:43.244Z,5.9
2022-10-31T20:17:13.859Z,6.0
2022-10-31T20:19:44.709Z,6.0
2022-10-31T20:22:15.682Z,5.9
2022-10-31T20:27:16.402Z,5.8
2022-10-31T20:29:57.010Z,5.6
2022-10-31T20:32:27.601Z,5.5
2022-10-31T20:35:00.462Z,5.5
2022-10-31T20:37:31.047Z,5.3
2022-10-31T20:40:01.618Z,5.2
2022-10-31T20:42:32.237Z,5.2
2022-10-31T20:45:12.850Z,5.3
2022-10-31T20:47:43.437Z,5.2
2022-10-31T20:50:14.409Z,5.2
2022-10-31T20:52:45.006Z,5.3
2022-10-31T20:55:15.664Z,5.3
2022-10-31T20:57:46.275Z,5.4
2022-10-31T21:00:26.903Z,5.5
2022-10-31T21:02:57.620Z,5.4
2022-10-31T21:07:58.394Z,5.4
2022-10-31T21:10:29.007Z,5.4
2022-10-31T21:13:09.613Z,5.5
2022-10-31T21:15:40.203Z,5.4
2022-10-31T21:18:10.764Z,5.4
2022-10-31T21:20:41.374Z,5.3
2022-10-31T21:23:11.981Z,5.4
2022-10-31T21:25:42.576Z,5.3
2022-10-31T21:28:23.167Z,5.2
2022-10-31T21:31:03.747Z,5.2
2022-10-31T21:33:34.334Z,5.1
2022-10-31T21:36:04.917Z,4.9
2022-10-31T21:38:35.467Z,5.1
2022-10-31T21:41:06.045Z,4.9
2022-10-31T21:43:46.652Z,4.8
2022-10-31T21:48:47.398Z,4.7
2022-10-31T21:51:17.980Z,4.7
2022-10-31T21:53:48.569Z,4.7
2022-10-31T21:56:19.173Z,4.7
2022-10-31T21:58:59.788Z,4.7
2022-10-31T22:01:30.463Z,4.7
2022-10-31T22:04:01.521Z,4.6
2022-10-31T22:06:32.121Z,4.5
2022-10-31T22:09:02.734Z,4.5
2022-10-31T22:11:43.347Z,4.5
2022-10-31T22:14:13.935Z,4.5
2022-10-31T22:16:44.694Z,4.6
2022-10-31T22:19:15.299Z,4.5
2022-10-31T22:21:45.908Z,4.7
2022-10-31T22:24:16.501Z,5.1
2022-10-31T22:29:27.235Z,4.9
2022-10-31T22:31:58.894Z,4.9
2022-10-31T22:34:31.180Z,5.1
2022-10-31T22:37:01.792Z,4.9
2022-10-31T22:39:27.738Z,5.2
2022-10-31T22:42:08.336Z,5.3
2022-10-31T22:44:38.990Z,5.2
2022-10-31T22:47:09.586Z,4.9
2022-10-31T22:49:40.204Z,4.9
2022-10-31T22:52:10.784Z,4.9
2022-10-31T22:54:41.384Z,4.8
2022-10-31T22:57:26.046Z,4.9
2022-10-31T22:59:56.652Z,4.9
2022-10-31T23:02:27.272Z,4.9
2022-10-31T23:09:58.237Z,4.7
2022-10-31T23:12:38.832Z,4.7
2022-10-31T23:15:09.405Z,4.7
2022-10-31T23:17:39.983Z,4.6
2022-10-31T23:20:11.103Z,4.6
2022-10-31T23:22:41.762Z,4.6
2022-10-31T23:25:22.801Z,4.7
2022-10-31T23:27:53.359Z,4.8
2022-10-31T23:30:23.939Z,5.1
2022-10-31T23:32:54.515Z,5.2
2022-10-31T23:35:25.370Z,5.2
2022-10-31T23:37:55.965Z,5.4
2022-10-31T23:40:36.544Z,5.5
2022-10-31T23:43:07.131Z,5.6
2022-10-31T23:45:37.746Z,5.6
2022-10-31T23:50:38.509Z,5.7
2022-10-31T23:53:09.083Z,5.8
2022-10-31T23:55:49.783Z,5.8
2022-10-31T23:58:20.372Z,5.8
